createdAt,value
2018-05-31T00:00:41.032Z,101095.76
2018-05-31T00:03:08.488Z,101096.16
2018-05-31T00:05:35.917Z,101101.19
2018-05-31T00:08:02.603Z,101095.59
2018-05-31T00:10:29.296Z,101100.51
2018-05-31T00:12:56.000Z,101098.67
2018-05-31T00:15:22.740Z,101103.83
2018-05-31T00:17:49.457Z,101100.88
2018-05-31T00:20:16.109Z,101096.81
2018-05-31T00:22:42.798Z,101094.85
2018-05-31T00:25:10.220Z,101094.53
2018-05-31T00:27:36.952Z,101090.63
2018-05-31T00:30:03.628Z,101087.27
2018-05-31T00:32:31.152Z,101088.27
2018-05-31T00:34:58.101Z,101090.42
2018-05-31T00:37:25.560Z,101087.88
2018-05-31T00:39:52.349Z,101081.59
2018-05-31T00:42:18.996Z,101082.44
2018-05-31T00:44:46.517Z,101077.93
2018-05-31T00:47:13.246Z,101080.81
2018-05-31T00:49:39.948Z,101083.63
2018-05-31T00:52:06.615Z,101087.36
2018-05-31T00:54:33.306Z,101089.84
2018-05-31T00:57:00.706Z,101094.84
2018-05-31T00:59:27.514Z,101090.45
2018-05-31T01:01:54.895Z,101087.82
2018-05-31T01:04:21.550Z,101095.33
2018-05-31T01:06:48.236Z,101102.53
2018-05-31T01:09:14.900Z,101090.22
2018-05-31T01:11:41.524Z,101104.40
2018-05-31T01:14:08.934Z,101098.53
2018-05-31T01:16:35.681Z,101096.13
2018-05-31T01:19:02.337Z,101094.17
2018-05-31T01:21:29.157Z,101090.63
2018-05-31T01:23:55.826Z,101092.30
2018-05-31T01:26:24.136Z,101095.17
2018-05-31T01:28:51.695Z,101096.22
2018-05-31T01:31:18.372Z,101088.27
2018-05-31T01:33:45.037Z,101088.83
2018-05-31T01:36:11.759Z,101086.87
2018-05-31T01:38:38.433Z,101084.52
2018-05-31T01:41:05.858Z,101088.78
2018-05-31T01:43:32.561Z,101086.62
2018-05-31T01:45:59.480Z,101086.73
2018-05-31T01:48:26.929Z,101093.88
2018-05-31T01:50:54.415Z,101095.43
2018-05-31T01:53:21.092Z,101092.80
2018-05-31T01:55:47.796Z,101091.23
2018-05-31T01:58:14.509Z,101092.40
2018-05-31T02:00:41.916Z,101092.09
2018-05-31T02:03:08.575Z,101085.36
2018-05-31T02:05:35.214Z,101082.88
2018-05-31T02:08:01.888Z,101081.25
2018-05-31T02:10:29.324Z,101083.52
2018-05-31T02:12:56.050Z,101080.06
2018-05-31T02:15:22.752Z,101089.08
2018-05-31T02:17:49.413Z,101079.16
2018-05-31T02:20:16.130Z,101079.70
2018-05-31T02:22:42.778Z,101076.89
2018-05-31T02:25:09.479Z,101078.44
2018-05-31T02:27:36.881Z,101075.69
2018-05-31T02:30:03.557Z,101064.13
2018-05-31T02:32:30.233Z,101068.31
2018-05-31T02:34:57.040Z,101066.45
2018-05-31T02:37:23.735Z,101068.02
2018-05-31T02:39:50.383Z,101069.16
2018-05-31T02:42:17.143Z,101073.02
2018-05-31T02:44:43.797Z,101070.56
2018-05-31T02:47:10.632Z,101068.34
2018-05-31T02:49:37.297Z,101072.09
2018-05-31T02:52:04.777Z,101070.94
2018-05-31T02:54:31.401Z,101069.91
2018-05-31T02:56:58.212Z,101067.84
2018-05-31T02:59:25.845Z,101071.52
2018-05-31T03:01:52.502Z,101072.77
2018-05-31T03:04:19.149Z,101075.36
2018-05-31T03:06:45.823Z,101077.08
2018-05-31T03:09:13.242Z,101082.17
2018-05-31T03:11:39.967Z,101082.96
2018-05-31T03:14:06.634Z,101091.39
2018-05-31T03:16:33.256Z,101100.98
2018-05-31T03:18:59.936Z,101104.53
2018-05-31T03:21:27.319Z,101102.89
2018-05-31T03:23:54.017Z,101102.82
2018-05-31T03:26:20.835Z,101110.08
2018-05-31T03:28:47.479Z,101104.80
2018-05-31T03:31:14.176Z,101100.64
2018-05-31T03:33:40.819Z,101100.85
2018-05-31T03:36:07.469Z,101104.03
2018-05-31T03:38:34.156Z,101110.24
2018-05-31T03:41:01.584Z,101105.07
2018-05-31T03:43:28.276Z,101104.16
2018-05-31T03:45:54.953Z,101108.02
2018-05-31T03:48:21.622Z,101115.75
2018-05-31T03:50:48.336Z,101103.95
2018-05-31T03:53:15.088Z,101105.96
2018-05-31T03:55:41.729Z,101112.03
2018-05-31T03:58:08.384Z,101109.54
2018-05-31T04:00:36.041Z,101110.27
2018-05-31T04:03:03.507Z,101114.75
2018-05-31T04:05:30.314Z,101122.45
2018-05-31T04:07:57.014Z,101117.47
2018-05-31T04:10:24.404Z,101118.69
2018-05-31T04:12:51.089Z,101122.69
2018-05-31T04:15:17.788Z,101116.73
2018-05-31T04:17:44.475Z,101120.58
2018-05-31T04:20:11.928Z,101116.28
2018-05-31T04:22:39.371Z,101129.70
2018-05-31T04:25:06.029Z,101141.38
2018-05-31T04:27:33.547Z,101143.91
2018-05-31T04:30:00.213Z,101147.58
2018-05-31T04:32:28.351Z,101141.87
2018-05-31T04:34:54.976Z,101144.47
2018-05-31T04:37:21.811Z,101133.40
2018-05-31T04:39:48.452Z,101139.42
2018-05-31T04:42:15.120Z,101144.94
2018-05-31T04:44:41.887Z,101152.88
2018-05-31T04:47:10.045Z,101144.70
2018-05-31T04:49:36.833Z,101142.94
2018-05-31T04:52:03.464Z,101151.49
2018-05-31T04:54:30.247Z,101146.55
2018-05-31T04:56:56.879Z,101152.05
2018-05-31T04:59:23.540Z,101153.95
2018-05-31T05:01:50.235Z,101147.93
2018-05-31T05:04:17.018Z,101148.81
2018-05-31T05:06:43.704Z,101154.53
2018-05-31T05:09:10.496Z,101164.09
2018-05-31T05:11:37.130Z,101160.31
2018-05-31T05:14:03.770Z,101170.96
2018-05-31T05:16:30.486Z,101161.91
2018-05-31T05:18:57.120Z,101160.75
2018-05-31T05:21:23.784Z,101158.52
2018-05-31T05:23:50.437Z,101159.11
2018-05-31T05:26:17.171Z,101157.00
2018-05-31T05:28:43.915Z,101156.09
2018-05-31T05:31:10.609Z,101148.58
2018-05-31T05:33:37.259Z,101153.38
2018-05-31T05:36:04.036Z,101159.98
2018-05-31T05:38:30.708Z,101159.20
2018-05-31T05:40:58.084Z,101159.02
2018-05-31T05:43:24.768Z,101154.63
2018-05-31T05:45:51.426Z,101149.00
2018-05-31T05:48:18.069Z,101152.13
2018-05-31T05:50:46.207Z,101149.35
2018-05-31T05:53:12.923Z,101152.87
2018-05-31T05:55:39.556Z,101152.50
2018-05-31T05:58:06.222Z,101155.50
2018-05-31T06:00:32.936Z,101159.78
2018-05-31T06:02:59.684Z,101161.09
2018-05-31T06:05:26.455Z,101161.16
2018-05-31T06:07:53.316Z,101160.59
2018-05-31T06:10:20.295Z,101163.03
2018-05-31T06:12:48.424Z,101165.24
2018-05-31T06:15:15.072Z,101172.41
2018-05-31T06:17:41.869Z,101180.15
2018-05-31T06:20:08.632Z,101176.88
2018-05-31T06:22:35.428Z,101184.27
2018-05-31T06:25:03.092Z,101184.28
2018-05-31T06:27:30.647Z,101182.59
2018-05-31T06:29:58.053Z,101187.35
2018-05-31T06:32:24.941Z,101180.56
2018-05-31T06:34:51.652Z,101187.56
2018-05-31T06:37:18.515Z,101190.30
2018-05-31T06:39:45.174Z,101191.91
2018-05-31T06:42:12.030Z,101203.08
2018-05-31T06:44:39.483Z,101209.27
2018-05-31T06:47:06.920Z,101210.98
2018-05-31T06:49:33.829Z,101220.47
2018-05-31T06:52:00.484Z,101228.66
2018-05-31T06:54:27.118Z,101227.35
2018-05-31T06:56:54.247Z,101223.88
2018-05-31T06:59:20.912Z,101226.77
2018-05-31T07:01:47.585Z,101232.25
2018-05-31T07:04:15.282Z,101222.98
2018-05-31T07:06:41.969Z,101222.52
2018-05-31T07:09:08.664Z,101220.72
2018-05-31T07:11:35.365Z,101216.87
2018-05-31T07:14:02.984Z,101217.69
2018-05-31T07:16:29.781Z,101218.45
2018-05-31T07:18:57.350Z,101223.53
2018-05-31T07:21:24.539Z,101223.64
2018-05-31T07:23:51.336Z,101225.38
2018-05-31T07:26:18.740Z,101225.75
2018-05-31T07:28:45.432Z,101229.95
2018-05-31T07:31:13.052Z,101234.87
2018-05-31T07:33:39.833Z,101234.33
2018-05-31T07:36:07.250Z,101242.98
2018-05-31T07:38:33.936Z,101240.17
2018-05-31T07:41:01.359Z,101239.75
2018-05-31T07:43:28.105Z,101234.85
2018-05-31T07:45:54.869Z,101239.39
2018-05-31T07:48:22.259Z,101234.07
2018-05-31T07:50:48.985Z,101225.73
2018-05-31T07:53:15.730Z,101225.62
2018-05-31T07:55:42.331Z,101230.52
2018-05-31T07:58:09.027Z,101221.67
2018-05-31T08:00:35.722Z,101223.82
2018-05-31T08:03:03.175Z,101214.72
2018-05-31T08:05:30.712Z,101215.62
2018-05-31T08:07:57.340Z,101212.17
2018-05-31T08:10:24.030Z,101216.51
2018-05-31T08:12:50.692Z,101217.56
2018-05-31T08:15:17.341Z,101213.92
2018-05-31T08:17:44.041Z,101215.16
2018-05-31T08:20:11.569Z,101205.24
2018-05-31T08:22:38.234Z,101213.45
2018-05-31T08:25:05.640Z,101210.94
2018-05-31T08:27:32.313Z,101213.68
2018-05-31T08:29:58.978Z,101212.31
2018-05-31T08:32:26.371Z,101210.97
2018-05-31T08:34:53.054Z,101212.47
2018-05-31T08:37:19.849Z,101213.23
2018-05-31T08:39:46.518Z,101211.62
2018-05-31T08:42:13.282Z,101211.14
2018-05-31T08:44:40.665Z,101214.33
2018-05-31T08:47:07.334Z,101218.89
2018-05-31T08:49:34.018Z,101224.77
2018-05-31T08:52:01.428Z,101224.45
2018-05-31T08:54:28.151Z,101228.81
2018-05-31T08:56:54.812Z,101229.80
2018-05-31T08:59:22.238Z,101228.84
2018-05-31T09:01:49.293Z,101226.95
2018-05-31T09:04:16.006Z,101219.47
2018-05-31T09:06:43.421Z,101224.06
2018-05-31T09:09:10.173Z,101227.44
2018-05-31T09:11:36.846Z,101227.66
2018-05-31T09:14:04.305Z,101235.28
2018-05-31T09:16:31.704Z,101233.16
2018-05-31T09:18:58.359Z,101238.33
2018-05-31T09:21:25.043Z,101240.53
2018-05-31T09:23:51.733Z,101234.05
2018-05-31T09:26:18.354Z,101230.53
2018-05-31T09:28:45.046Z,101235.69
2018-05-31T09:31:12.449Z,101241.22
2018-05-31T09:33:39.085Z,101244.14
2018-05-31T09:36:05.746Z,101246.34
2018-05-31T09:38:32.509Z,101238.16
2018-05-31T09:40:59.370Z,101241.00
2018-05-31T09:43:26.829Z,101234.77
2018-05-31T09:45:54.243Z,101239.71
2018-05-31T09:48:20.897Z,101240.32
2018-05-31T09:50:47.591Z,101239.96
2018-05-31T09:53:14.272Z,101236.83
2018-05-31T09:55:40.968Z,101231.22
2018-05-31T09:58:07.657Z,101230.84
2018-05-31T10:00:37.197Z,101231.45
2018-05-31T10:03:03.918Z,101228.72
2018-05-31T10:05:30.634Z,101230.23
2018-05-31T10:07:57.292Z,101228.64
2018-05-31T10:10:24.672Z,101230.36
2018-05-31T10:12:52.068Z,101229.95
2018-05-31T10:15:18.742Z,101231.09
2018-05-31T10:17:45.595Z,101234.67
2018-05-31T10:20:13.085Z,101235.86
2018-05-31T10:22:39.732Z,101229.45
2018-05-31T10:25:06.454Z,101233.60
2018-05-31T10:27:33.915Z,101234.80
2018-05-31T10:30:00.726Z,101233.08
2018-05-31T10:32:28.100Z,101229.41
2018-05-31T10:34:55.494Z,101231.80
2018-05-31T10:37:22.141Z,101229.86
2018-05-31T10:39:48.789Z,101234.21
2018-05-31T10:42:22.462Z,101234.59
2018-05-31T10:44:49.078Z,101238.33
2018-05-31T10:47:16.486Z,101235.03
2018-05-31T10:49:43.119Z,101236.19
2018-05-31T10:52:09.837Z,101240.17
2018-05-31T10:54:36.486Z,101238.79
2018-05-31T10:57:03.239Z,101235.27
2018-05-31T10:59:29.889Z,101235.25
2018-05-31T11:01:57.358Z,101234.86
2018-05-31T11:04:24.849Z,101228.30
2018-05-31T11:06:51.745Z,101231.02
2018-05-31T11:09:18.552Z,101231.38
2018-05-31T11:11:45.997Z,101225.94
2018-05-31T11:14:12.857Z,101229.28
2018-05-31T11:16:39.675Z,101231.50
2018-05-31T11:19:07.088Z,101230.55
2018-05-31T11:21:33.767Z,101233.90
2018-05-31T11:24:01.432Z,101235.83
2018-05-31T11:26:28.812Z,101227.61
2018-05-31T11:28:55.485Z,101231.54
2018-05-31T11:31:22.163Z,101231.36
2018-05-31T11:33:49.600Z,101222.55
2018-05-31T11:36:16.280Z,101225.30
2018-05-31T11:38:42.946Z,101230.17
2018-05-31T11:41:09.601Z,101230.75
2018-05-31T11:43:36.251Z,101228.22
2018-05-31T11:46:02.928Z,101235.04
2018-05-31T11:48:30.304Z,101235.25
2018-05-31T11:50:56.988Z,101230.56
2018-05-31T11:53:23.655Z,101229.77
2018-05-31T11:55:51.243Z,101229.95
2018-05-31T11:58:17.912Z,101224.11
2018-05-31T12:00:44.620Z,101224.86
2018-05-31T12:03:11.293Z,101220.39
2018-05-31T12:05:37.987Z,101224.69
2018-05-31T12:08:04.714Z,101220.18
2018-05-31T12:10:32.102Z,101220.17
2018-05-31T12:12:58.814Z,101216.67
2018-05-31T12:15:25.561Z,101219.94
2018-05-31T12:17:52.228Z,101214.05
2018-05-31T12:20:19.808Z,101217.39
2018-05-31T12:22:46.555Z,101222.73
2018-05-31T12:25:13.189Z,101220.58
2018-05-31T12:27:39.858Z,101218.62
2018-05-31T12:30:07.266Z,101215.27
2018-05-31T12:32:33.895Z,101210.63
2018-05-31T12:35:00.577Z,101211.56
2018-05-31T12:37:27.247Z,101200.00
2018-05-31T12:39:54.684Z,101200.39
2018-05-31T12:42:21.325Z,101198.81
2018-05-31T12:44:48.772Z,101182.88
2018-05-31T12:47:15.413Z,101180.77
2018-05-31T12:49:42.156Z,101181.28
2018-05-31T12:52:08.823Z,101183.55
2018-05-31T12:54:36.207Z,101181.57
2018-05-31T12:57:03.816Z,101180.11
2018-05-31T12:59:34.850Z,101180.23
2018-05-31T13:02:01.519Z,101175.10
2018-05-31T13:04:29.032Z,101170.97
2018-05-31T13:06:55.842Z,101165.42
2018-05-31T13:09:22.502Z,101161.52
2018-05-31T13:11:49.996Z,101156.84
2018-05-31T13:14:16.858Z,101151.22
2018-05-31T13:16:44.283Z,101148.73
2018-05-31T13:19:10.936Z,101145.00
2018-05-31T13:21:37.581Z,101147.23
2018-05-31T13:24:04.952Z,101142.45
2018-05-31T13:26:49.896Z,101142.98
2018-05-31T13:29:17.793Z,101150.16
2018-05-31T13:31:44.524Z,101151.19
2018-05-31T13:34:12.110Z,101149.79
2018-05-31T13:36:38.777Z,101147.38
2018-05-31T13:39:05.517Z,101155.10
2018-05-31T13:41:32.160Z,101151.39
2018-05-31T13:43:59.388Z,101151.28
2018-05-31T13:46:26.048Z,101154.16
2018-05-31T13:48:52.741Z,101151.76
2018-05-31T13:51:19.364Z,101154.98
2018-05-31T13:53:46.793Z,101151.83
2018-05-31T13:56:13.463Z,101153.47
2018-05-31T13:58:41.081Z,101162.25
2018-05-31T14:01:07.818Z,101160.13
2018-05-31T14:03:34.482Z,101169.83
2018-05-31T14:06:01.182Z,101173.69
2018-05-31T14:08:27.825Z,101164.16
2018-05-31T14:10:54.537Z,101169.97
2018-05-31T14:13:21.201Z,101167.77
2018-05-31T14:15:47.885Z,101168.50
2018-05-31T14:18:14.664Z,101164.72
2018-05-31T14:20:41.916Z,101163.67
2018-05-31T14:23:08.789Z,101165.42
2018-05-31T14:25:35.483Z,101155.36
2018-05-31T14:28:02.989Z,101146.09
2018-05-31T14:30:29.645Z,101144.88
2018-05-31T14:32:57.113Z,101135.24
2018-05-31T14:35:23.777Z,101141.48
2018-05-31T14:37:51.218Z,101138.94
2018-05-31T14:40:17.908Z,101144.62
2018-05-31T14:42:44.579Z,101142.89
2018-05-31T14:45:11.249Z,101151.83
2018-05-31T14:47:38.800Z,101149.79
2018-05-31T14:50:06.222Z,101148.45
2018-05-31T14:52:32.866Z,101148.09
2018-05-31T14:54:59.533Z,101146.06
2018-05-31T14:57:26.197Z,101143.91
2018-05-31T14:59:52.861Z,101151.79
2018-05-31T15:02:19.518Z,101157.50
2018-05-31T15:04:47.136Z,101153.42
2018-05-31T15:07:13.825Z,101140.92
2018-05-31T15:09:40.630Z,101145.29
2018-05-31T15:12:07.328Z,101144.05
2018-05-31T15:14:35.487Z,101139.22
2018-05-31T15:17:02.157Z,101133.25
2018-05-31T15:19:29.557Z,101135.30
2018-05-31T15:21:56.256Z,101128.84
2018-05-31T15:24:23.689Z,101123.38
2018-05-31T15:26:51.145Z,101117.67
2018-05-31T15:29:17.865Z,101129.13
2018-05-31T15:31:44.720Z,101135.74
2018-05-31T15:34:11.370Z,101140.23
2018-05-31T15:36:38.799Z,101143.17
2018-05-31T15:39:05.933Z,101148.31
2018-05-31T15:41:32.596Z,101153.64
2018-05-31T15:44:00.386Z,101145.20
2018-05-31T15:46:27.325Z,101145.17
2018-05-31T15:48:53.995Z,101149.82
2018-05-31T15:51:21.498Z,101149.55
2018-05-31T15:53:48.215Z,101149.92
2018-05-31T15:56:14.913Z,101144.84
2018-05-31T15:58:41.782Z,101136.41
2018-05-31T16:01:09.428Z,101140.91
2018-05-31T16:03:36.071Z,101131.84
2018-05-31T16:06:03.463Z,101128.69
2018-05-31T16:08:30.303Z,101128.89
2018-05-31T16:10:56.994Z,101124.37
2018-05-31T16:13:23.665Z,101130.34
2018-05-31T16:15:50.404Z,101127.79
2018-05-31T16:18:17.930Z,101128.37
2018-05-31T16:20:44.660Z,101126.02
2018-05-31T16:23:11.429Z,101132.09
2018-05-31T16:25:39.108Z,101127.78
2018-05-31T16:28:05.869Z,101129.92
2018-05-31T16:30:32.635Z,101133.27
2018-05-31T16:32:59.312Z,101141.45
2018-05-31T16:35:26.801Z,101138.84
2018-05-31T16:37:53.495Z,101127.50
2018-05-31T16:40:20.150Z,101120.43
2018-05-31T16:42:47.550Z,101124.36
2018-05-31T16:45:14.220Z,101125.54
2018-05-31T16:47:40.893Z,101119.20
2018-05-31T16:50:08.338Z,101121.02
2018-05-31T16:52:34.992Z,101121.42
2018-05-31T16:55:02.404Z,101122.19
2018-05-31T16:57:29.116Z,101111.48
2018-05-31T16:59:55.874Z,101105.42
2018-05-31T17:02:22.548Z,101105.41
2018-05-31T17:04:49.955Z,101102.30
2018-05-31T17:07:16.696Z,101106.59
2018-05-31T17:09:43.360Z,101112.48
2018-05-31T17:12:10.053Z,101116.36
2018-05-31T17:14:37.582Z,101112.23
2018-05-31T17:17:04.377Z,101106.57
2018-05-31T17:19:31.039Z,101106.59
2018-05-31T17:21:57.751Z,101115.18
2018-05-31T17:24:24.515Z,101109.88
2018-05-31T17:26:51.265Z,101115.73
2018-05-31T17:29:18.085Z,101123.19
2018-05-31T17:31:44.733Z,101118.70
2018-05-31T17:34:11.490Z,101120.36
2018-05-31T17:36:38.136Z,101118.14
2018-05-31T17:39:04.759Z,101117.36
2018-05-31T17:41:31.430Z,101122.33
2018-05-31T17:43:58.079Z,101120.44
2018-05-31T17:46:25.538Z,101123.56
2018-05-31T17:48:52.964Z,101118.47
2018-05-31T17:51:19.669Z,101113.21
2018-05-31T17:53:46.309Z,101120.25
2018-05-31T17:56:12.989Z,101126.70
2018-05-31T17:58:39.688Z,101122.20
2018-05-31T18:01:06.375Z,101128.45
2018-05-31T18:03:33.057Z,101129.45
2018-05-31T18:05:59.733Z,101131.55
2018-05-31T18:08:26.702Z,101128.42
2018-05-31T18:10:53.333Z,101128.23
2018-05-31T18:13:20.072Z,101135.29
2018-05-31T18:15:46.757Z,101137.36
2018-05-31T18:18:13.477Z,101136.38
2018-05-31T18:20:41.129Z,101137.95
2018-05-31T18:23:07.757Z,101134.55
2018-05-31T18:25:35.274Z,101126.76
2018-05-31T18:28:01.939Z,101130.61
2018-05-31T18:30:28.652Z,101128.86
2018-05-31T18:32:55.310Z,101130.59
2018-05-31T18:35:22.048Z,101132.90
2018-05-31T18:37:48.822Z,101133.70
2018-05-31T18:40:15.488Z,101130.81
2018-05-31T18:42:42.968Z,101137.59
2018-05-31T18:45:09.604Z,101143.63
2018-05-31T18:47:36.279Z,101145.77
2018-05-31T18:50:02.918Z,101149.02
2018-05-31T18:52:29.648Z,101151.58
2018-05-31T18:54:56.448Z,101137.11
2018-05-31T18:57:23.161Z,101139.47
2018-05-31T18:59:49.837Z,101138.67
2018-05-31T19:02:16.525Z,101135.08
2018-05-31T19:04:43.407Z,101133.94
2018-05-31T19:07:10.922Z,101135.45
2018-05-31T19:09:37.553Z,101138.05
2018-05-31T19:12:04.262Z,101132.95
2018-05-31T19:14:31.701Z,101132.94
2018-05-31T19:16:59.166Z,101138.39
2018-05-31T19:19:31.825Z,101136.05
2018-05-31T19:21:59.313Z,101141.70
2018-05-31T19:24:32.995Z,101142.06
2018-05-31T19:29:30.778Z,101162.41
2018-05-31T19:31:58.219Z,101166.21
2018-05-31T19:34:24.938Z,101165.69
2018-05-31T19:36:57.701Z,101173.73
2018-05-31T19:39:24.389Z,101179.30
2018-05-31T19:41:53.031Z,101174.06
2018-05-31T19:44:25.708Z,101179.75
2018-05-31T19:46:52.393Z,101181.60
2018-05-31T19:49:19.135Z,101182.77
2018-05-31T19:51:51.757Z,101188.16
2018-05-31T19:54:18.454Z,101188.70
2018-05-31T19:56:45.970Z,101190.82
2018-05-31T19:59:18.785Z,101196.55
2018-05-31T20:01:51.543Z,101199.21
2018-05-31T20:04:18.260Z,101201.07
2018-05-31T20:06:44.895Z,101202.83
2018-05-31T20:09:11.795Z,101194.52
2018-05-31T20:11:38.479Z,101200.08
2018-05-31T20:14:05.470Z,101203.03
2018-05-31T20:16:32.150Z,101209.19
2018-05-31T20:18:58.886Z,101203.64
2018-05-31T20:21:25.533Z,101208.66
2018-05-31T20:23:52.278Z,101207.59
2018-05-31T20:26:18.974Z,101212.42
2018-05-31T20:28:45.670Z,101219.55
2018-05-31T20:31:12.354Z,101219.01
2018-05-31T20:33:39.410Z,101234.00
2018-05-31T20:36:06.101Z,101243.45
2018-05-31T20:38:32.779Z,101248.10
2018-05-31T20:40:59.447Z,101246.28
2018-05-31T20:43:26.910Z,101243.30
2018-05-31T20:45:54.313Z,101247.70
2018-05-31T20:48:21.062Z,101247.59
2018-05-31T20:50:47.826Z,101241.31
2018-05-31T20:53:14.526Z,101236.97
2018-05-31T20:55:41.257Z,101243.92
2018-05-31T20:58:07.950Z,101238.48
2018-05-31T21:00:35.381Z,101230.91
2018-05-31T21:03:02.051Z,101229.36
2018-05-31T21:05:29.451Z,101225.45
2018-05-31T21:07:56.209Z,101231.44
2018-05-31T21:10:22.893Z,101235.75
2018-05-31T21:12:50.318Z,101237.08
2018-05-31T21:15:16.980Z,101219.73
2018-05-31T21:17:44.399Z,101228.12
2018-05-31T21:20:11.221Z,101230.95
2018-05-31T21:22:37.901Z,101238.92
2018-05-31T21:25:04.644Z,101237.70
2018-05-31T21:27:32.786Z,101231.48
2018-05-31T21:29:59.486Z,101224.13
2018-05-31T21:32:26.177Z,101213.70
2018-05-31T21:34:52.874Z,101221.70
2018-05-31T21:37:19.684Z,101217.03
2018-05-31T21:39:46.492Z,101216.90
2018-05-31T21:42:13.161Z,101214.91
2018-05-31T21:44:39.821Z,101220.25
2018-05-31T21:47:07.267Z,101224.50
2018-05-31T21:49:33.921Z,101224.69
2018-05-31T21:52:01.481Z,101221.80
2018-05-31T21:54:28.893Z,101212.00
2018-05-31T21:56:55.562Z,101210.89
2018-05-31T21:59:22.319Z,101218.88
2018-05-31T22:01:49.873Z,101220.73
2018-05-31T22:04:17.271Z,101228.52
2018-05-31T22:06:43.935Z,101226.10
2018-05-31T22:09:10.629Z,101217.69
2018-05-31T22:11:37.515Z,101227.25
2018-05-31T22:14:04.172Z,101229.98
2018-05-31T22:16:30.928Z,101224.27
2018-05-31T22:18:57.556Z,101225.45
2018-05-31T22:21:24.222Z,101221.97
2018-05-31T22:23:51.633Z,101224.81
2018-05-31T22:26:19.069Z,101230.84
2018-05-31T22:28:45.708Z,101225.09
2018-05-31T22:31:12.336Z,101224.89
2018-05-31T22:33:38.990Z,101223.85
2018-05-31T22:36:05.665Z,101226.41
2018-05-31T22:38:32.337Z,101211.91
2018-05-31T22:40:59.028Z,101210.91
2018-05-31T22:43:25.696Z,101199.23
2018-05-31T22:45:53.110Z,101205.47
2018-05-31T22:48:19.918Z,101199.23
2018-05-31T22:50:46.586Z,101198.41
2018-05-31T22:53:13.303Z,101192.45
2018-05-31T22:55:39.951Z,101190.61
2018-05-31T22:58:06.645Z,101189.64
2018-05-31T23:00:33.341Z,101187.93
2018-05-31T23:03:00.129Z,101194.25
2018-05-31T23:05:26.801Z,101189.72
2018-05-31T23:07:53.509Z,101184.05
2018-05-31T23:10:20.925Z,101182.27
2018-05-31T23:12:47.646Z,101182.42
2018-05-31T23:15:14.339Z,101180.21
2018-05-31T23:17:42.485Z,101176.70
2018-05-31T23:20:09.148Z,101181.02
2018-05-31T23:22:35.881Z,101179.70
2018-05-31T23:25:03.285Z,101180.25
2018-05-31T23:27:29.912Z,101179.62
2018-05-31T23:29:57.297Z,101178.58
2018-05-31T23:32:24.158Z,101190.29
2018-05-31T23:34:50.928Z,101195.31
2018-05-31T23:37:17.601Z,101198.66
2018-05-31T23:39:44.364Z,101201.48
2018-05-31T23:42:10.999Z,101201.39
2018-05-31T23:44:37.657Z,101198.11
2018-05-31T23:47:04.328Z,101203.34
2018-05-31T23:49:31.780Z,101199.95
2018-05-31T23:51:58.428Z,101204.52
2018-05-31T23:54:25.803Z,101209.25
2018-05-31T23:56:52.449Z,101217.69
2018-05-31T23:59:19.229Z,101212.27
